Daniela Morace — IJAJ2 — position and weather

sailwx.info

Track history (hours):
 
Tides and Currents Weather Stations Pressure Air Temp Water Temp Dewpoint Dewpoint Depression Visibility Wind Speed Wind Dir Waves Ship Positions

Daniela Morace

Last reported at 2014-Nov-26 16:33 UTC. Time now 2014-Nov-26 17:32 UTC.
Position N 38°13' E 015°15'.

Length 36 m; draft 1 m.

Type: Ship. MMSI: 247297500.

Date/timePositionNaut miles runAvg speedWind from/ knotsBaromVisibWave heightAir tempDewpointWater temp
2014-Nov-26 16:33N 38°13' E 015°15'9 4.5
2014-Nov-26 14:30N 38°21' E 015°09'9 9.8
2014-Nov-26 13:33N 38°13' E 015°15'0 0.3
2014-Nov-26 12:33N 38°13' E 015°14'10 2.9
2014-Nov-26 09:04N 38°21' E 015°08'1019.5
2014-Nov-26 08:33N 38°13' E 015°14'4 0.3
2014-Nov-25 17:34N 38°17' E 015°15'5 4.5
2014-Nov-25 16:33N 38°13' E 015°15'8 3.8
2014-Nov-25 14:27N 38°20' E 015°09'8 8.6
2014-Nov-25 13:33N 38°13' E 015°14'0 0.0
2014-Nov-25 12:33N 38°13' E 015°14'0 0.0
2014-Nov-25 08:33N 38°13' E 015°14'4 0.3
2014-Nov-24 17:33N 38°17' E 015°14'5 4.5
2014-Nov-24 16:33N 38°13' E 015°15'8 3.6
2014-Nov-24 14:27N 38°20' E 015°10'7 8.1
2014-Nov-24 13:33N 38°13' E 015°14'0 0.0
2014-Nov-24 12:33N 38°13' E 015°14'11 3.3
2014-Nov-24 09:06N 38°22' E 015°05'1221.0
2014-Nov-24 08:33N 38°13' E 015°15'5 0.3
2014-Nov-23 17:33N 38°18' E 015°14'5 4.8
2014-Nov-23 16:33N 38°13' E 015°15'0 0.0
2014-Nov-22 16:28N 38°13' E 015°15'0 0.0
2014-Nov-21 09:33N 38°13' E 015°15'0 0.0
2014-Nov-21 08:33N 38°13' E 015°15'0 0.0
2014-Nov-21 07:33N 38°13' E 015°15'0 0.0
2014-Nov-20 17:33N 38°13' E 015°15'0 0.0
2014-Nov-20 16:33N 38°13' E 015°15'0 0.0
2014-Nov-20 15:33N 38°13' E 015°15'0 0.0
2014-Nov-20 14:33N 38°13' E 015°15'6 5.7
2014-Nov-20 13:33N 38°18' E 015°13'4 0.6
2014-Nov-20 06:34N 38°15' E 015°17'3 0.3
2014-Nov-19 19:24N 38°17' E 015°14'5 1.1
2014-Nov-19 15:15N 38°20' E 015°09'912.4
2014-Nov-19 14:33N 38°13' E 015°15'6 5.7
2014-Nov-19 13:31N 38°19' E 015°12'4 0.6
2014-Nov-19 06:33N 38°16' E 015°16'8 0.5
2014-Nov-18 15:22N 38°22' E 015°09'1012.3
2014-Nov-18 14:34N 38°13' E 015°15'7 7.0
2014-Nov-18 13:33N 38°19' E 015°11'5 0.7
2014-Nov-18 06:33N 38°16' E 015°16'4 0.3
2014-Nov-17 19:33N 38°19' E 015°13'3 0.8
2014-Nov-17 15:16N 38°21' E 015°10'912.5
2014-Nov-17 14:34N 38°13' E 015°15'6 5.6
2014-Nov-17 13:33N 38°18' E 015°13'4 0.5
2014-Nov-17 06:33N 38°16' E 015°16'3 2.7
2014-Nov-17 05:33N 38°13' E 015°14'  
Track history (hours):
 
Tides and Currents Weather Stations Pressure Air Temp Water Temp Dewpoint Dewpoint Depression Visibility Wind Speed Wind Dir Waves Ship Positions

Daniela Morace

Last reported at 2014-Nov-26 16:33 UTC. Time now 2014-Nov-26 17:32 UTC.
Position N 38°13' E 015°15'.

Length 36 m; draft 1 m.

Type: Ship. MMSI: 247297500.

Date/timePositionNaut miles runAvg speedWind from/ knotsBaromVisibWave heightAir tempDewpointWater temp
2014-Nov-26 16:33N 38°13' E 015°15'9 4.5
2014-Nov-26 14:30N 38°21' E 015°09'9 9.8
2014-Nov-26 13:33N 38°13' E 015°15'0 0.3
2014-Nov-26 12:33N 38°13' E 015°14'10 2.9
2014-Nov-26 09:04N 38°21' E 015°08'1019.5
2014-Nov-26 08:33N 38°13' E 015°14'4 0.3
2014-Nov-25 17:34N 38°17' E 015°15'5 4.5
2014-Nov-25 16:33N 38°13' E 015°15'8 3.8
2014-Nov-25 14:27N 38°20' E 015°09'8 8.6
2014-Nov-25 13:33N 38°13' E 015°14'0 0.0
2014-Nov-25 12:33N 38°13' E 015°14'0 0.0
2014-Nov-25 08:33N 38°13' E 015°14'4 0.3
2014-Nov-24 17:33N 38°17' E 015°14'5 4.5
2014-Nov-24 16:33N 38°13' E 015°15'8 3.6
2014-Nov-24 14:27N 38°20' E 015°10'7 8.1
2014-Nov-24 13:33N 38°13' E 015°14'0 0.0
2014-Nov-24 12:33N 38°13' E 015°14'11 3.3
2014-Nov-24 09:06N 38°22' E 015°05'1221.0
2014-Nov-24 08:33N 38°13' E 015°15'5 0.3
2014-Nov-23 17:33N 38°18' E 015°14'5 4.8
2014-Nov-23 16:33N 38°13' E 015°15'0 0.0
2014-Nov-22 16:28N 38°13' E 015°15'0 0.0
2014-Nov-21 09:33N 38°13' E 015°15'0 0.0
2014-Nov-21 08:33N 38°13' E 015°15'0 0.0
2014-Nov-21 07:33N 38°13' E 015°15'0 0.0
2014-Nov-20 17:33N 38°13' E 015°15'0 0.0
2014-Nov-20 16:33N 38°13' E 015°15'0 0.0
2014-Nov-20 15:33N 38°13' E 015°15'0 0.0
2014-Nov-20 14:33N 38°13' E 015°15'6 5.7
2014-Nov-20 13:33N 38°18' E 015°13'4 0.6
2014-Nov-20 06:34N 38°15' E 015°17'3 0.3
2014-Nov-19 19:24N 38°17' E 015°14'5 1.1
2014-Nov-19 15:15N 38°20' E 015°09'912.4
2014-Nov-19 14:33N 38°13' E 015°15'6 5.7
2014-Nov-19 13:31N 38°19' E 015°12'4 0.6
2014-Nov-19 06:33N 38°16' E 015°16'8 0.5
2014-Nov-18 15:22N 38°22' E 015°09'1012.3
2014-Nov-18 14:34N 38°13' E 015°15'7 7.0
2014-Nov-18 13:33N 38°19' E 015°11'5 0.7
2014-Nov-18 06:33N 38°16' E 015°16'4 0.3
2014-Nov-17 19:33N 38°19' E 015°13'3 0.8
2014-Nov-17 15:16N 38°21' E 015°10'912.5
2014-Nov-17 14:34N 38°13' E 015°15'6 5.6
2014-Nov-17 13:33N 38°18' E 015°13'4 0.5
2014-Nov-17 06:33N 38°16' E 015°16'3 2.7
2014-Nov-17 05:33N 38°13' E 015°14'  

Dump ship's entire track history